createdAt,value
2023-03-18T00:02:30.197Z,28.50
2023-03-18T00:05:10.145Z,29.55
2023-03-18T00:08:04.116Z,23.00
2023-03-18T00:10:51.161Z,24.27
2023-03-18T00:13:31.206Z,18.58
2023-03-18T00:16:26.161Z,16.35
2023-03-18T00:19:20.163Z,18.38
2023-03-18T00:22:15.125Z,22.52
2023-03-18T00:25:02.144Z,17.02
2023-03-18T00:27:42.110Z,17.58
2023-03-18T00:30:29.285Z,17.92
2023-03-18T00:33:03.356Z,19.77
2023-03-18T00:35:54.144Z,15.90
2023-03-18T00:38:34.152Z,21.70
2023-03-18T00:41:28.153Z,31.27
2023-03-18T00:44:15.150Z,23.70
2023-03-18T00:46:55.216Z,29.52
2023-03-18T00:49:42.145Z,30.25
2023-03-18T00:52:15.271Z,28.88
2023-03-18T00:55:02.173Z,32.47
2023-03-18T00:57:37.305Z,27.45
2023-03-18T01:00:25.162Z,27.88
2023-03-18T01:02:59.453Z,28.55
2023-03-18T01:05:46.138Z,25.73
2023-03-18T01:08:19.321Z,25.90
2023-03-18T01:11:06.204Z,28.40
2023-03-18T01:13:41.259Z,22.77
2023-03-18T01:16:30.303Z,26.52
2023-03-18T01:19:04.462Z,31.80
2023-03-18T01:21:51.133Z,35.40
2023-03-18T01:24:31.163Z,32.50
2023-03-18T01:27:18.132Z,36.03
2023-03-18T01:29:51.858Z,35.13
2023-03-18T01:32:38.224Z,36.83
2023-03-18T01:35:12.481Z,31.23
2023-03-18T01:40:33.547Z,35.50
2023-03-18T01:43:23.159Z,34.50
2023-03-18T01:46:06.162Z,31.05
2023-03-18T01:48:53.173Z,31.55
2023-03-18T01:51:27.280Z,35.58
2023-03-18T01:54:15.157Z,33.30
2023-03-18T01:56:58.157Z,30.65
2023-03-18T01:59:55.186Z,32.90
2023-03-18T02:02:42.149Z,33.15
2023-03-18T02:05:18.275Z,30.50
2023-03-18T02:08:05.166Z,33.40
2023-03-18T02:10:39.729Z,38.42
2023-03-18T02:13:26.187Z,26.70
2023-03-18T02:16:04.271Z,35.05
2023-03-18T02:18:58.152Z,32.85
2023-03-18T02:22:06.309Z,33.83
2023-03-18T02:25:15.183Z,42.20
2023-03-18T02:28:02.202Z,32.08
2023-03-18T02:31:02.322Z,34.33
2023-03-18T02:33:50.143Z,32.42
2023-03-18T02:36:30.272Z,29.55
2023-03-18T02:39:22.164Z,29.98
2023-03-18T02:41:55.313Z,33.53
2023-03-18T02:44:47.188Z,30.83
2023-03-18T02:47:27.348Z,26.50
2023-03-18T02:50:14.182Z,28.67
2023-03-18T02:52:54.173Z,25.38
2023-03-18T02:55:48.175Z,25.75
2023-03-18T02:58:35.224Z,24.25
2023-03-18T03:01:15.261Z,21.08
2023-03-18T03:04:03.187Z,25.88
2023-03-18T03:06:58.200Z,21.17
2023-03-18T03:09:45.187Z,20.75
2023-03-18T03:12:18.268Z,25.98
2023-03-18T03:15:05.171Z,24.67
2023-03-18T03:17:38.296Z,19.20
2023-03-18T03:20:25.201Z,24.45
2023-03-18T03:22:58.376Z,19.90
2023-03-18T03:25:45.170Z,25.52
2023-03-18T03:28:27.211Z,22.83
2023-03-18T03:31:21.228Z,20.52
2023-03-18T03:34:09.182Z,19.05
2023-03-18T03:36:50.195Z,19.92
2023-03-18T03:39:37.211Z,23.92
2023-03-18T03:42:17.202Z,22.20
2023-03-18T03:45:12.181Z,25.83
2023-03-18T03:48:06.184Z,20.98
2023-03-18T03:50:54.187Z,20.95
2023-03-18T03:53:34.213Z,23.55
2023-03-18T03:56:28.195Z,20.92
2023-03-18T03:59:17.194Z,26.63
2023-03-18T04:01:57.200Z,21.08
2023-03-18T04:04:52.195Z,19.50
2023-03-18T04:07:39.202Z,20.45
2023-03-18T04:10:20.186Z,19.17
2023-03-18T04:13:07.292Z,21.35
2023-03-18T04:15:41.280Z,20.45
2023-03-18T04:18:28.210Z,23.63
2023-03-18T04:21:01.859Z,23.52
2023-03-18T04:23:48.182Z,17.38
2023-03-18T04:26:21.291Z,18.17
2023-03-18T04:29:08.183Z,17.45
2023-03-18T04:31:41.727Z,19.73
2023-03-18T04:34:29.203Z,21.23
2023-03-18T04:37:02.386Z,18.42
2023-03-18T04:39:49.204Z,19.75
2023-03-18T04:42:23.342Z,18.83
2023-03-18T04:45:12.231Z,21.35
2023-03-18T04:47:45.586Z,18.13
2023-03-18T04:50:32.466Z,18.35
2023-03-18T04:53:05.337Z,17.20
2023-03-18T04:55:52.255Z,18.92
2023-03-18T04:58:25.290Z,22.00
2023-03-18T05:01:12.235Z,20.88
2023-03-18T05:03:46.329Z,22.38
2023-03-18T05:06:42.195Z,22.48
2023-03-18T05:09:36.218Z,20.38
2023-03-18T05:12:23.204Z,25.63
2023-03-18T05:15:03.237Z,20.02
2023-03-18T05:17:57.249Z,20.13
2023-03-18T05:20:44.208Z,25.38
2023-03-18T05:23:17.451Z,24.30
2023-03-18T05:26:04.214Z,24.00
2023-03-18T05:28:39.214Z,23.58
2023-03-18T05:31:26.259Z,24.33
2023-03-18T05:34:00.409Z,33.15
2023-03-18T05:36:47.237Z,32.88
2023-03-18T05:39:20.353Z,33.10
2023-03-18T05:42:07.202Z,38.90
2023-03-18T05:44:40.512Z,41.30
2023-03-18T05:47:27.238Z,34.10
2023-03-18T05:50:01.656Z,37.03
2023-03-18T05:52:48.233Z,36.38
2023-03-18T05:55:23.452Z,27.92
2023-03-18T05:58:10.306Z,25.52
2023-03-18T06:00:51.211Z,24.92
2023-03-18T06:03:45.321Z,19.02
2023-03-18T06:06:33.219Z,16.70
2023-03-18T06:09:07.045Z,19.45
2023-03-18T06:11:54.238Z,17.15
2023-03-18T06:14:36.227Z,18.42
2023-03-18T06:17:23.281Z,15.25
2023-03-18T06:19:57.001Z,17.90
2023-03-18T06:22:43.233Z,21.30
2023-03-18T06:25:23.261Z,20.95
2023-03-18T06:28:10.235Z,21.08
2023-03-18T06:30:43.344Z,26.83
2023-03-18T06:33:32.226Z,32.72
2023-03-18T06:36:12.296Z,22.67
2023-03-18T06:39:00.273Z,28.58
2023-03-18T06:41:40.260Z,16.45
2023-03-18T06:44:35.273Z,15.05
2023-03-18T06:47:22.239Z,15.45
2023-03-18T06:49:56.880Z,13.20
2023-03-18T06:52:44.246Z,15.88
2023-03-18T06:55:24.255Z,18.33
2023-03-18T06:58:12.261Z,13.95
2023-03-18T07:00:47.776Z,15.25
2023-03-18T07:03:34.247Z,15.43
2023-03-18T07:06:14.236Z,19.90
2023-03-18T07:09:08.292Z,13.40
2023-03-18T07:11:55.278Z,18.17
2023-03-18T07:14:28.750Z,16.75
2023-03-18T07:17:17.256Z,16.25
2023-03-18T07:19:50.342Z,17.05
2023-03-18T07:22:37.284Z,12.68
2023-03-18T07:25:11.465Z,15.40
2023-03-18T07:27:58.264Z,14.55
2023-03-18T07:30:31.337Z,14.80
2023-03-18T07:33:18.245Z,14.30
2023-03-18T07:35:51.445Z,13.25
2023-03-18T07:38:38.271Z,15.77
2023-03-18T07:41:18.287Z,15.73
2023-03-18T07:44:12.267Z,13.68
2023-03-18T07:46:59.275Z,14.25
2023-03-18T07:49:32.385Z,13.50
2023-03-18T07:52:19.281Z,14.48
2023-03-18T07:54:52.528Z,14.43
2023-03-18T07:57:39.299Z,13.65
2023-03-18T08:00:14.399Z,13.90
2023-03-18T08:03:02.276Z,13.60
2023-03-18T08:05:35.454Z,18.83
2023-03-18T08:08:22.273Z,13.18
2023-03-18T08:10:55.366Z,18.02
2023-03-18T08:13:44.305Z,12.32
2023-03-18T08:16:18.620Z,13.98
2023-03-18T08:19:05.296Z,13.73
2023-03-18T08:21:38.507Z,13.32
2023-03-18T08:24:25.274Z,13.73
2023-03-18T08:26:58.426Z,14.25
2023-03-18T08:29:45.286Z,17.33
2023-03-18T08:32:21.980Z,13.77
2023-03-18T08:35:09.284Z,12.82
2023-03-18T08:37:42.690Z,13.85
2023-03-18T08:40:29.304Z,14.52
2023-03-18T08:43:02.374Z,16.15
2023-03-18T08:45:49.347Z,13.48
2023-03-18T08:48:29.288Z,12.93
2023-03-18T08:51:23.292Z,11.63
2023-03-18T08:54:10.322Z,10.35
2023-03-18T08:56:43.463Z,12.02
2023-03-18T08:59:30.320Z,12.75
2023-03-18T09:02:03.609Z,11.90
2023-03-18T09:04:57.327Z,11.18
2023-03-18T09:07:52.308Z,11.38
2023-03-18T09:10:40.312Z,12.23
2023-03-18T09:13:21.302Z,10.68
2023-03-18T09:16:08.386Z,11.93
2023-03-18T09:18:48.943Z,12.57
2023-03-18T09:21:42.319Z,11.50
2023-03-18T09:24:36.325Z,11.98
2023-03-18T09:27:30.325Z,12.75
2023-03-18T09:30:24.325Z,12.05
2023-03-18T09:33:13.361Z,11.32
2023-03-18T09:35:46.449Z,11.93
2023-03-18T09:38:33.329Z,12.75
2023-03-18T09:41:51.464Z,13.10
2023-03-18T09:44:43.324Z,13.20
2023-03-18T09:47:38.429Z,12.70
2023-03-18T09:50:50.344Z,11.77
2023-03-18T09:53:40.362Z,10.27
2023-03-18T09:56:52.346Z,12.68
2023-03-18T09:59:50.316Z,14.40
2023-03-18T10:02:49.469Z,12.10
2023-03-18T10:05:55.324Z,13.55
2023-03-18T10:09:13.331Z,11.73
2023-03-18T10:12:14.368Z,16.30
2023-03-18T10:14:53.465Z,15.88
2023-03-18T10:18:15.364Z,13.05
2023-03-18T10:21:10.535Z,14.70
2023-03-18T10:24:24.344Z,15.65
2023-03-18T10:27:12.471Z,17.38
2023-03-18T10:30:10.351Z,16.73
2023-03-18T10:33:05.395Z,14.25
2023-03-18T10:36:11.384Z,17.38
2023-03-18T10:39:01.346Z,17.00
2023-03-18T10:41:51.346Z,16.35
2023-03-18T10:44:45.316Z,15.40
2023-03-18T10:47:30.507Z,17.60
2023-03-18T10:50:30.667Z,15.70
2023-03-18T10:53:30.275Z,15.27
2023-03-18T10:56:19.364Z,14.75
2023-03-18T10:58:53.701Z,16.33
2023-03-18T11:01:43.438Z,16.52
2023-03-18T11:04:29.358Z,16.55
2023-03-18T11:07:31.368Z,16.40
2023-03-18T11:10:24.387Z,16.55
2023-03-18T11:13:02.369Z,26.05
2023-03-18T11:15:59.463Z,20.98
2023-03-18T11:18:42.365Z,17.95
2023-03-18T11:21:38.376Z,15.75
2023-03-18T11:24:42.408Z,14.75
2023-03-18T11:27:21.471Z,16.50
2023-03-18T11:30:34.849Z,17.17
2023-03-18T11:33:30.493Z,17.42
2023-03-18T11:36:27.405Z,16.65
2023-03-18T11:39:23.765Z,18.63
2023-03-18T11:42:24.420Z,18.35
2023-03-18T11:45:01.563Z,18.60
2023-03-18T11:47:50.388Z,15.80
2023-03-18T11:50:34.652Z,17.88
2023-03-18T11:53:55.386Z,15.30
2023-03-18T11:56:49.498Z,15.73
2023-03-18T11:59:36.374Z,15.80
2023-03-18T12:02:37.501Z,16.23
2023-03-18T12:06:00.365Z,17.67
2023-03-18T12:09:04.410Z,18.13
2023-03-18T12:12:03.387Z,14.85
2023-03-18T12:15:04.564Z,16.27
2023-03-18T12:18:13.399Z,16.23
2023-03-18T12:20:52.654Z,16.50
2023-03-18T12:23:45.396Z,16.20
2023-03-18T12:26:48.414Z,17.25
2023-03-18T12:29:54.411Z,17.52
2023-03-18T12:32:49.450Z,23.92
2023-03-18T12:35:58.751Z,24.83
2023-03-18T12:38:51.403Z,18.65
2023-03-18T12:41:30.942Z,24.10
2023-03-18T12:44:32.416Z,17.10
2023-03-18T12:47:25.478Z,15.68
2023-03-18T12:50:41.420Z,15.77
2023-03-18T12:53:40.433Z,17.75
2023-03-18T12:56:23.529Z,17.98
2023-03-18T12:59:19.480Z,17.90
2023-03-18T13:02:23.697Z,17.35
2023-03-18T13:05:27.425Z,16.48
2023-03-18T13:08:23.472Z,15.52
2023-03-18T13:11:42.408Z,15.27
2023-03-18T13:14:47.487Z,15.93
2023-03-18T13:17:36.428Z,16.80
2023-03-18T13:20:30.591Z,15.27
2023-03-18T13:23:39.474Z,15.15
2023-03-18T13:26:33.480Z,15.20
2023-03-18T13:29:42.980Z,15.50
2023-03-18T13:32:30.570Z,13.60
2023-03-18T13:36:03.519Z,14.55
2023-03-18T13:39:25.477Z,15.77
2023-03-18T13:42:36.420Z,16.67
2023-03-18T13:45:37.477Z,13.52
2023-03-18T13:48:51.564Z,20.45
2023-03-18T13:51:38.439Z,27.73
2023-03-18T13:54:26.446Z,44.45
2023-03-18T13:57:30.429Z,21.85
2023-03-18T14:00:35.481Z,26.02
2023-03-18T14:03:29.492Z,25.17
2023-03-18T14:06:23.471Z,13.27
2023-03-18T14:10:18.377Z,16.10
2023-03-18T14:13:41.474Z,13.50
2023-03-18T14:16:38.427Z,20.75
2023-03-18T14:19:41.475Z,15.18
2023-03-18T14:22:35.476Z,14.60
2023-03-18T14:25:37.288Z,14.73
2023-03-18T14:28:27.479Z,14.43
2023-03-18T14:31:19.642Z,13.48
2023-03-18T14:34:10.446Z,13.40
2023-03-18T14:36:59.480Z,13.00
2023-03-18T14:39:59.483Z,12.57
2023-03-18T14:43:07.478Z,12.63
2023-03-18T14:45:55.478Z,12.10
2023-03-18T14:48:49.479Z,13.13
2023-03-18T14:51:38.496Z,14.32
2023-03-18T14:54:18.603Z,14.43
2023-03-18T14:57:10.527Z,11.75
2023-03-18T14:59:45.668Z,13.68
2023-03-18T15:02:40.537Z,13.45
2023-03-18T15:05:14.695Z,12.23
2023-03-18T15:08:01.482Z,14.05
2023-03-18T15:10:44.515Z,13.07
2023-03-18T15:13:39.578Z,14.05
2023-03-18T15:16:26.559Z,14.98
2023-03-18T15:19:01.610Z,14.20
2023-03-18T15:21:48.514Z,12.48
2023-03-18T15:24:26.929Z,14.30
2023-03-18T15:27:21.492Z,14.30
2023-03-18T15:30:04.505Z,13.75
2023-03-18T15:32:58.577Z,13.35
2023-03-18T15:35:32.983Z,14.23
2023-03-18T15:38:24.522Z,12.32
2023-03-18T15:41:05.667Z,13.15
2023-03-18T15:43:55.501Z,14.38
2023-03-18T15:46:36.600Z,14.55
2023-03-18T15:49:27.506Z,12.80
2023-03-18T15:52:15.503Z,36.03
2023-03-18T15:55:09.507Z,13.73
2023-03-18T15:58:07.538Z,14.70
2023-03-18T16:01:01.564Z,14.50
2023-03-18T16:03:49.512Z,14.65
2023-03-18T16:06:22.906Z,15.88
2023-03-18T16:09:27.506Z,15.75
2023-03-18T16:12:12.570Z,15.43
2023-03-18T16:15:07.572Z,15.77
2023-03-18T16:17:55.526Z,15.07
2023-03-18T16:20:39.497Z,15.25
2023-03-18T16:23:33.510Z,14.27
2023-03-18T16:26:29.499Z,16.13
2023-03-18T16:29:34.588Z,14.57
2023-03-18T16:32:24.568Z,17.02
2023-03-18T16:35:04.565Z,17.75
2023-03-18T16:37:59.512Z,16.98
2023-03-18T16:40:46.554Z,18.75
2023-03-18T16:43:38.702Z,19.58
2023-03-18T16:46:30.633Z,17.38
2023-03-18T16:49:03.693Z,19.73
2023-03-18T16:51:51.518Z,18.48
2023-03-18T16:54:33.607Z,18.95
2023-03-18T16:57:33.522Z,18.92
2023-03-18T17:00:44.605Z,31.13
2023-03-18T17:03:18.660Z,28.98
2023-03-18T17:06:13.518Z,25.88
2023-03-18T17:09:07.521Z,28.88
2023-03-18T17:12:00.579Z,22.85
2023-03-18T17:14:41.683Z,31.48
2023-03-18T17:17:34.563Z,22.65
2023-03-18T17:20:11.462Z,27.05
2023-03-18T17:22:58.574Z,21.92
2023-03-18T17:25:41.597Z,21.67
2023-03-18T17:28:38.557Z,21.55
2023-03-18T17:31:12.696Z,23.42
2023-03-18T17:33:59.588Z,27.48
2023-03-18T17:36:39.588Z,28.98
2023-03-18T17:39:26.644Z,27.67
2023-03-18T17:42:01.349Z,29.45
2023-03-18T17:44:48.608Z,22.55
2023-03-18T17:47:21.684Z,22.48
2023-03-18T17:50:08.565Z,25.27
2023-03-18T17:52:51.402Z,21.05
2023-03-18T17:55:45.583Z,26.52
2023-03-18T17:58:34.607Z,28.60
2023-03-18T18:01:19.751Z,23.15
2023-03-18T18:04:06.556Z,33.90
2023-03-18T18:06:39.677Z,40.22
2023-03-18T18:09:27.584Z,40.70
2023-03-18T18:12:00.698Z,48.35
2023-03-18T18:14:50.569Z,38.67
2023-03-18T18:17:31.578Z,34.55
2023-03-18T18:20:23.583Z,34.50
2023-03-18T18:23:03.121Z,33.97
2023-03-18T18:25:49.583Z,22.83
2023-03-18T18:28:29.365Z,26.10
2023-03-18T18:31:19.768Z,25.58
2023-03-18T18:34:02.619Z,24.60
2023-03-18T18:36:49.595Z,32.22
2023-03-18T18:39:23.833Z,32.90
2023-03-18T18:42:10.599Z,39.20
2023-03-18T18:44:51.584Z,34.22
2023-03-18T18:47:42.615Z,46.13
2023-03-18T18:50:24.202Z,45.03
2023-03-18T18:53:21.578Z,44.17
2023-03-18T18:55:54.737Z,45.60
2023-03-18T18:58:43.646Z,42.45
2023-03-18T19:01:18.708Z,55.83
2023-03-18T19:04:05.693Z,52.95
2023-03-18T19:06:39.709Z,46.97
2023-03-18T19:09:30.611Z,47.75
2023-03-18T19:12:04.693Z,51.17
2023-03-18T19:14:53.594Z,52.35
2023-03-18T19:17:29.677Z,49.53
2023-03-18T19:20:37.590Z,47.53
2023-03-18T19:23:22.630Z,44.83
2023-03-18T19:26:12.625Z,45.10
2023-03-18T19:28:57.570Z,52.47
2023-03-18T19:31:47.657Z,50.53
2023-03-18T19:34:33.628Z,45.17
2023-03-18T19:37:36.625Z,38.63
2023-03-18T19:40:31.642Z,34.83
2023-03-18T19:43:04.726Z,41.58
2023-03-18T19:45:55.656Z,36.17
2023-03-18T19:48:39.659Z,38.20
2023-03-18T19:51:35.627Z,40.13
2023-03-18T19:54:43.633Z,44.28
2023-03-18T19:57:32.641Z,34.72
2023-03-18T20:00:31.605Z,42.10
2023-03-18T20:03:05.692Z,40.45
2023-03-18T20:05:53.640Z,38.63
2023-03-18T20:08:27.689Z,41.10
2023-03-18T20:11:18.678Z,36.50
2023-03-18T20:13:51.913Z,41.17
2023-03-18T20:16:38.670Z,37.50
2023-03-18T20:19:11.693Z,45.50
2023-03-18T20:21:58.633Z,43.05
2023-03-18T20:24:35.724Z,46.97
2023-03-18T20:27:23.647Z,49.15
2023-03-18T20:29:56.783Z,44.63
2023-03-18T20:32:44.677Z,45.35
2023-03-18T20:35:18.648Z,37.78
2023-03-18T20:38:10.668Z,40.15
2023-03-18T20:40:55.676Z,37.03
2023-03-18T20:43:43.649Z,36.70
2023-03-18T20:46:27.719Z,39.17
2023-03-18T20:49:14.640Z,38.35
2023-03-18T20:51:54.635Z,38.47
2023-03-18T20:54:41.701Z,37.58
2023-03-18T20:57:19.241Z,35.53
2023-03-18T21:00:05.647Z,38.95
2023-03-18T21:02:42.640Z,33.85
2023-03-18T21:05:30.978Z,35.28
2023-03-18T21:08:04.741Z,29.95
2023-03-18T21:10:51.702Z,34.65
2023-03-18T21:13:36.144Z,30.63
2023-03-18T21:16:23.677Z,30.45
2023-03-18T21:18:57.721Z,29.98
2023-03-18T21:21:45.671Z,34.80
2023-03-18T21:24:33.769Z,32.95
2023-03-18T21:27:28.630Z,42.70
2023-03-18T21:30:02.994Z,38.80
2023-03-18T21:32:51.929Z,51.88
2023-03-18T21:35:32.206Z,39.20
2023-03-18T21:38:19.645Z,41.95
2023-03-18T21:40:53.133Z,34.92
2023-03-18T21:43:41.681Z,37.83
2023-03-18T21:46:19.836Z,40.28
2023-03-18T21:49:06.639Z,34.90
2023-03-18T21:51:40.502Z,35.78
2023-03-18T21:54:28.650Z,42.08
2023-03-18T21:57:01.785Z,42.08
2023-03-18T21:59:48.693Z,45.70
2023-03-18T22:02:30.787Z,41.88
2023-03-18T22:05:24.717Z,42.42
2023-03-18T22:08:05.709Z,45.00
2023-03-18T22:10:53.732Z,40.13
2023-03-18T22:13:33.602Z,38.63
2023-03-18T22:16:23.725Z,50.00
2023-03-18T22:18:56.841Z,40.78
2023-03-18T22:21:43.746Z,44.90
2023-03-18T22:24:20.786Z,44.83
2023-03-18T22:27:07.702Z,42.17
2023-03-18T22:29:40.776Z,62.25
2023-03-18T22:32:48.688Z,59.22
2023-03-18T22:35:27.948Z,48.55
2023-03-18T22:38:20.642Z,49.45
2023-03-18T22:41:03.698Z,44.80
2023-03-18T22:43:50.690Z,35.20
2023-03-18T22:46:30.696Z,36.22
2023-03-18T22:49:24.653Z,36.08
2023-03-18T22:52:11.695Z,32.65
2023-03-18T22:54:51.733Z,35.65
2023-03-18T22:57:45.708Z,33.83
2023-03-18T23:00:43.711Z,37.00
2023-03-18T23:03:37.699Z,33.90
2023-03-18T23:06:33.800Z,32.60
2023-03-18T23:09:30.372Z,29.83
2023-03-18T23:12:18.685Z,27.02
2023-03-18T23:14:52.699Z,30.63
2023-03-18T23:17:39.693Z,27.25
2023-03-18T23:20:19.694Z,28.00
2023-03-18T23:23:06.709Z,30.60
2023-03-18T23:25:39.822Z,25.63
2023-03-18T23:28:26.671Z,27.42
2023-03-18T23:30:59.957Z,24.60
2023-03-18T23:33:46.663Z,28.88
2023-03-18T23:36:26.646Z,23.50
2023-03-18T23:39:20.689Z,23.88
2023-03-18T23:42:07.734Z,31.90
2023-03-18T23:44:47.739Z,21.77
2023-03-18T23:47:41.707Z,24.98
2023-03-18T23:50:28.683Z,24.85
2023-03-18T23:53:02.339Z,23.33
2023-03-18T23:55:48.890Z,25.75
2023-03-18T23:58:22.859Z,21.73
